ENNE

Norne Fpso Oilp

Norne Fpso Oilp, Norway
METAR ENNE 250450Z AUTO 20025KT 9999NDV OVC008/// 08/07 Q1024 W///S5
Observed Flight Rules
May-25 @ 04:50 UTC (31 minutes ago)
Wind Clouds
200° at 25 knots
  • Overcast at 800' AGL
Temperatures Readings
Current 8°C / 46°F
Dewpoint 7°C / 45°F
Humidity 93%
Altimeter 30.24" Hg
Pressure 1024 hPa
Elevation 10
METAR ENNE 250450Z AUTO 20025KT 9999NDV OVC008/// 08/07 Q1024 W///S5
Observed Flight Rules
May-25 @ 04:50 UTC
(31 minutes ago)
Wind
200° at 25 knots
Clouds
  • Overcast at 800' AGL
Temperature Dewpoint
8°C / 46°F 7°C / 45°F
Humidity Altimeter Pressure
93% 30.24" Hg 1024 hPa